sensor_id;sensor_type;location;lat;lon;timestamp;P1;durP1;ratioP1;P2;durP2;ratioP2
58338;SDS011;48278;52.704;6.536;2022-07-15T00:02:08;13.65;;;2.35;;
58338;SDS011;48278;52.704;6.536;2022-07-15T00:07:00;12.33;;;2.30;;
58338;SDS011;48278;52.704;6.536;2022-07-15T00:09:26;7.32;;;1.80;;
58338;SDS011;48278;52.704;6.536;2022-07-15T00:12:10;8.90;;;2.00;;
58338;SDS011;48278;52.704;6.536;2022-07-15T00:14:37;10.32;;;1.90;;
58338;SDS011;48278;52.704;6.536;2022-07-15T00:17:04;18.33;;;2.63;;
58338;SDS011;48278;52.704;6.536;2022-07-15T00:19:31;9.82;;;2.00;;
58338;SDS011;48278;52.704;6.536;2022-07-15T00:21:58;6.88;;;1.83;;
58338;SDS011;48278;52.704;6.536;2022-07-15T00:24:23;10.55;;;1.80;;
58338;SDS011;48278;52.704;6.536;2022-07-15T00:26:49;8.07;;;1.50;;
58338;SDS011;48278;52.704;6.536;2022-07-15T00:29:15;18.70;;;2.17;;
58338;SDS011;48278;52.704;6.536;2022-07-15T00:31:41;11.57;;;2.00;;
58338;SDS011;48278;52.704;6.536;2022-07-15T00:34:07;11.27;;;2.03;;
58338;SDS011;48278;52.704;6.536;2022-07-15T00:36:33;13.00;;;2.50;;
58338;SDS011;48278;52.704;6.536;2022-07-15T00:39:02;10.20;;;2.55;;
58338;SDS011;48278;52.704;6.536;2022-07-15T00:41:35;10.00;;;2.10;;
58338;SDS011;48278;52.704;6.536;2022-07-15T00:44:04;12.13;;;2.38;;
58338;SDS011;48278;52.704;6.536;2022-07-15T00:46:30;8.07;;;2.20;;
58338;SDS011;48278;52.704;6.536;2022-07-15T00:48:57;13.02;;;3.40;;
58338;SDS011;48278;52.704;6.536;2022-07-15T00:51:24;8.98;;;2.83;;
58338;SDS011;48278;52.704;6.536;2022-07-15T00:53:50;10.65;;;2.20;;
58338;SDS011;48278;52.704;6.536;2022-07-15T00:56:17;10.73;;;2.60;;
58338;SDS011;48278;52.704;6.536;2022-07-15T00:58:48;11.13;;;3.08;;
58338;SDS011;48278;52.704;6.536;2022-07-15T01:01:18;13.63;;;3.00;;
58338;SDS011;48278;52.704;6.536;2022-07-15T01:03:45;10.60;;;2.88;;
58338;SDS011;48278;52.704;6.536;2022-07-15T01:06:13;7.63;;;2.58;;
58338;SDS011;48278;52.704;6.536;2022-07-15T01:08:39;12.32;;;2.70;;
58338;SDS011;48278;52.704;6.536;2022-07-15T01:11:05;8.43;;;2.50;;
58338;SDS011;48278;52.704;6.536;2022-07-15T01:13:31;11.40;;;2.73;;
58338;SDS011;48278;52.704;6.536;2022-07-15T01:15:57;11.48;;;2.38;;
58338;SDS011;48278;52.704;6.536;2022-07-15T01:18:23;10.07;;;2.42;;
58338;SDS011;48278;52.704;6.536;2022-07-15T01:20:49;9.27;;;2.38;;
58338;SDS011;48278;52.704;6.536;2022-07-15T01:23:15;11.32;;;2.50;;
58338;SDS011;48278;52.704;6.536;2022-07-15T01:25:41;18.52;;;2.88;;
58338;SDS011;48278;52.704;6.536;2022-07-15T01:28:08;13.30;;;2.70;;
58338;SDS011;48278;52.704;6.536;2022-07-15T01:30:34;13.52;;;2.70;;
58338;SDS011;48278;52.704;6.536;2022-07-15T01:33:01;10.25;;;2.38;;
58338;SDS011;48278;52.704;6.536;2022-07-15T01:35:27;13.38;;;2.90;;
58338;SDS011;48278;52.704;6.536;2022-07-15T01:37:53;14.45;;;3.10;;
58338;SDS011;48278;52.704;6.536;2022-07-15T01:40:19;12.60;;;3.17;;
58338;SDS011;48278;52.704;6.536;2022-07-15T01:42:45;12.63;;;1.85;;
58338;SDS011;48278;52.704;6.536;2022-07-15T01:45:11;10.35;;;2.00;;
58338;SDS011;48278;52.704;6.536;2022-07-15T01:47:44;15.97;;;2.27;;
58338;SDS011;48278;52.704;6.536;2022-07-15T01:50:11;9.13;;;2.05;;
58338;SDS011;48278;52.704;6.536;2022-07-15T01:52:38;14.60;;;2.33;;
58338;SDS011;48278;52.704;6.536;2022-07-15T01:55:04;12.40;;;1.50;;
58338;SDS011;48278;52.704;6.536;2022-07-15T01:57:31;17.00;;;1.95;;
58338;SDS011;48278;52.704;6.536;2022-07-15T01:59:57;11.45;;;2.10;;
58338;SDS011;48278;52.704;6.536;2022-07-15T02:02:23;12.85;;;1.90;;
58338;SDS011;48278;52.704;6.536;2022-07-15T02:04:48;9.18;;;1.40;;
58338;SDS011;48278;52.704;6.536;2022-07-15T02:07:15;10.82;;;1.58;;
58338;SDS011;48278;52.704;6.536;2022-07-15T02:09:40;10.55;;;1.48;;
58338;SDS011;48278;52.704;6.536;2022-07-15T02:12:06;13.18;;;2.00;;
58338;SDS011;48278;52.704;6.536;2022-07-15T02:14:33;10.77;;;1.80;;
58338;SDS011;48278;52.704;6.536;2022-07-15T02:16:59;14.82;;;2.22;;
58338;SDS011;48278;52.704;6.536;2022-07-15T02:19:26;10.40;;;1.50;;
58338;SDS011;48278;52.704;6.536;2022-07-15T02:21:51;15.00;;;1.98;;
58338;SDS011;48278;52.704;6.536;2022-07-15T02:24:17;11.70;;;1.98;;
58338;SDS011;48278;52.704;6.536;2022-07-15T02:26:45;12.43;;;1.92;;
58338;SDS011;48278;52.704;6.536;2022-07-15T02:29:11;11.85;;;1.92;;
58338;SDS011;48278;52.704;6.536;2022-07-15T02:31:37;9.83;;;2.27;;
58338;SDS011;48278;52.704;6.536;2022-07-15T02:34:03;14.60;;;2.08;;
58338;SDS011;48278;52.704;6.536;2022-07-15T02:36:29;11.67;;;2.23;;
58338;SDS011;48278;52.704;6.536;2022-07-15T02:38:55;15.35;;;2.80;;
58338;SDS011;48278;52.704;6.536;2022-07-15T02:41:23;12.23;;;2.42;;
58338;SDS011;48278;52.704;6.536;2022-07-15T02:43:49;14.82;;;2.25;;
58338;SDS011;48278;52.704;6.536;2022-07-15T02:46:15;13.98;;;2.55;;
58338;SDS011;48278;52.704;6.536;2022-07-15T02:48:41;12.55;;;2.55;;
58338;SDS011;48278;52.704;6.536;2022-07-15T02:51:07;12.20;;;2.13;;
58338;SDS011;48278;52.704;6.536;2022-07-15T02:53:33;12.60;;;2.53;;
58338;SDS011;48278;52.704;6.536;2022-07-15T02:56:00;13.82;;;2.65;;
58338;SDS011;48278;52.704;6.536;2022-07-15T02:58:27;8.20;;;2.70;;
58338;SDS011;48278;52.704;6.536;2022-07-15T03:00:54;15.98;;;3.58;;
58338;SDS011;48278;52.704;6.536;2022-07-15T03:03:20;13.43;;;2.90;;
58338;SDS011;48278;52.704;6.536;2022-07-15T03:05:46;12.98;;;3.13;;
58338;SDS011;48278;52.704;6.536;2022-07-15T03:08:12;11.15;;;2.72;;
58338;SDS011;48278;52.704;6.536;2022-07-15T03:10:38;13.18;;;3.15;;
58338;SDS011;48278;52.704;6.536;2022-07-15T03:13:03;18.40;;;3.33;;
58338;SDS011;48278;52.704;6.536;2022-07-15T03:15:29;18.15;;;3.38;;
58338;SDS011;48278;52.704;6.536;2022-07-15T03:17:55;16.27;;;3.25;;
58338;SDS011;48278;52.704;6.536;2022-07-15T03:20:21;14.45;;;3.50;;
58338;SDS011;48278;52.704;6.536;2022-07-15T03:22:46;14.70;;;3.08;;
58338;SDS011;48278;52.704;6.536;2022-07-15T03:25:12;11.50;;;3.70;;
58338;SDS011;48278;52.704;6.536;2022-07-15T03:27:38;13.65;;;3.72;;
58338;SDS011;48278;52.704;6.536;2022-07-15T03:30:04;13.57;;;3.70;;
58338;SDS011;48278;52.704;6.536;2022-07-15T03:32:30;13.00;;;3.07;;
58338;SDS011;48278;52.704;6.536;2022-07-15T03:34:56;13.38;;;3.63;;
58338;SDS011;48278;52.704;6.536;2022-07-15T03:37:22;15.50;;;3.50;;
58338;SDS011;48278;52.704;6.536;2022-07-15T03:39:48;16.90;;;3.75;;
58338;SDS011;48278;52.704;6.536;2022-07-15T03:42:14;12.57;;;3.15;;
58338;SDS011;48278;52.704;6.536;2022-07-15T03:44:40;12.93;;;3.38;;
58338;SDS011;48278;52.704;6.536;2022-07-15T03:47:05;14.30;;;3.63;;
58338;SDS011;48278;52.704;6.536;2022-07-15T03:49:31;12.98;;;3.75;;
58338;SDS011;48278;52.704;6.536;2022-07-15T03:51:57;15.95;;;3.42;;
58338;SDS011;48278;52.704;6.536;2022-07-15T03:54:22;14.43;;;3.65;;
58338;SDS011;48278;52.704;6.536;2022-07-15T03:56:48;11.75;;;3.30;;
58338;SDS011;48278;52.704;6.536;2022-07-15T03:59:15;14.25;;;3.60;;
58338;SDS011;48278;52.704;6.536;2022-07-15T04:01:41;13.98;;;3.38;;
58338;SDS011;48278;52.704;6.536;2022-07-15T04:04:07;17.33;;;3.63;;
58338;SDS011;48278;52.704;6.536;2022-07-15T04:06:34;14.13;;;3.92;;
58338;SDS011;48278;52.704;6.536;2022-07-15T04:09:00;13.50;;;3.70;;
58338;SDS011;48278;52.704;6.536;2022-07-15T04:11:26;12.65;;;3.47;;
58338;SDS011;48278;52.704;6.536;2022-07-15T04:13:51;16.92;;;3.53;;
58338;SDS011;48278;52.704;6.536;2022-07-15T04:16:17;13.07;;;2.97;;
58338;SDS011;48278;52.704;6.536;2022-07-15T04:18:43;15.13;;;3.50;;
58338;SDS011;48278;52.704;6.536;2022-07-15T04:21:09;17.88;;;3.17;;
58338;SDS011;48278;52.704;6.536;2022-07-15T04:23:35;11.10;;;2.97;;
58338;SDS011;48278;52.704;6.536;2022-07-15T04:26:02;12.77;;;3.20;;
58338;SDS011;48278;52.704;6.536;2022-07-15T04:28:28;12.15;;;3.58;;
58338;SDS011;48278;52.704;6.536;2022-07-15T04:30:54;13.60;;;4.05;;
58338;SDS011;48278;52.704;6.536;2022-07-15T04:33:19;20.85;;;3.83;;
58338;SDS011;48278;52.704;6.536;2022-07-15T04:35:45;16.48;;;4.03;;
58338;SDS011;48278;52.704;6.536;2022-07-15T04:38:11;13.32;;;4.07;;
58338;SDS011;48278;52.704;6.536;2022-07-15T04:40:37;17.52;;;3.90;;
58338;SDS011;48278;52.704;6.536;2022-07-15T04:43:05;22.95;;;3.95;;
58338;SDS011;48278;52.704;6.536;2022-07-15T04:45:32;14.57;;;3.72;;
58338;SDS011;48278;52.704;6.536;2022-07-15T04:47:58;18.00;;;4.20;;
58338;SDS011;48278;52.704;6.536;2022-07-15T04:50:24;12.70;;;4.03;;
58338;SDS011;48278;52.704;6.536;2022-07-15T04:53:08;11.75;;;3.80;;
58338;SDS011;48278;52.704;6.536;2022-07-15T04:55:34;11.73;;;3.80;;
58338;SDS011;48278;52.704;6.536;2022-07-15T04:57:59;12.75;;;3.88;;
58338;SDS011;48278;52.704;6.536;2022-07-15T05:00:25;15.77;;;4.15;;
58338;SDS011;48278;52.704;6.536;2022-07-15T05:02:52;15.85;;;4.43;;
58338;SDS011;48278;52.704;6.536;2022-07-15T05:05:18;18.30;;;3.42;;
58338;SDS011;48278;52.704;6.536;2022-07-15T05:07:44;16.77;;;3.60;;
58338;SDS011;48278;52.704;6.536;2022-07-15T05:10:10;15.82;;;3.50;;
58338;SDS011;48278;52.704;6.536;2022-07-15T05:12:36;14.67;;;3.23;;
58338;SDS011;48278;52.704;6.536;2022-07-15T05:15:03;15.15;;;3.47;;
58338;SDS011;48278;52.704;6.536;2022-07-15T05:17:29;14.07;;;3.70;;
58338;SDS011;48278;52.704;6.536;2022-07-15T05:19:55;14.52;;;3.17;;
58338;SDS011;48278;52.704;6.536;2022-07-15T05:22:21;15.23;;;3.20;;
58338;SDS011;48278;52.704;6.536;2022-07-15T05:24:47;13.02;;;2.92;;
58338;SDS011;48278;52.704;6.536;2022-07-15T05:27:13;9.60;;;2.38;;
58338;SDS011;48278;52.704;6.536;2022-07-15T05:29:39;17.30;;;3.50;;
58338;SDS011;48278;52.704;6.536;2022-07-15T05:32:05;13.07;;;2.83;;
58338;SDS011;48278;52.704;6.536;2022-07-15T05:34:32;12.02;;;2.30;;
58338;SDS011;48278;52.704;6.536;2022-07-15T05:36:57;13.73;;;2.25;;
58338;SDS011;48278;52.704;6.536;2022-07-15T05:39:23;10.65;;;1.60;;
58338;SDS011;48278;52.704;6.536;2022-07-15T05:41:49;12.00;;;1.53;;
58338;SDS011;48278;52.704;6.536;2022-07-15T05:44:15;9.50;;;1.02;;
58338;SDS011;48278;52.704;6.536;2022-07-15T05:46:44;8.57;;;0.80;;
58338;SDS011;48278;52.704;6.536;2022-07-15T05:49:09;8.70;;;1.08;;
58338;SDS011;48278;52.704;6.536;2022-07-15T05:51:35;8.30;;;1.30;;
58338;SDS011;48278;52.704;6.536;2022-07-15T05:54:04;12.00;;;1.00;;
58338;SDS011;48278;52.704;6.536;2022-07-15T05:56:32;9.40;;;1.23;;
58338;SDS011;48278;52.704;6.536;2022-07-15T05:58:57;5.95;;;0.73;;
58338;SDS011;48278;52.704;6.536;2022-07-15T06:01:23;7.13;;;1.00;;
58338;SDS011;48278;52.704;6.536;2022-07-15T06:03:49;3.45;;;0.65;;
58338;SDS011;48278;52.704;6.536;2022-07-15T06:06:16;4.28;;;0.50;;
58338;SDS011;48278;52.704;6.536;2022-07-15T06:08:42;3.72;;;0.60;;
58338;SDS011;48278;52.704;6.536;2022-07-15T06:11:08;4.97;;;0.50;;
58338;SDS011;48278;52.704;6.536;2022-07-15T06:13:36;7.20;;;0.70;;
58338;SDS011;48278;52.704;6.536;2022-07-15T06:16:03;6.18;;;0.40;;
58338;SDS011;48278;52.704;6.536;2022-07-15T06:18:30;4.38;;;0.50;;
58338;SDS011;48278;52.704;6.536;2022-07-15T06:20:55;8.18;;;0.60;;
58338;SDS011;48278;52.704;6.536;2022-07-15T06:23:21;4.45;;;0.50;;
58338;SDS011;48278;52.704;6.536;2022-07-15T06:25:47;3.45;;;0.40;;
58338;SDS011;48278;52.704;6.536;2022-07-15T06:28:13;9.82;;;0.70;;
58338;SDS011;48278;52.704;6.536;2022-07-15T06:30:39;5.82;;;0.50;;
58338;SDS011;48278;52.704;6.536;2022-07-15T06:33:07;5.10;;;0.35;;
58338;SDS011;48278;52.704;6.536;2022-07-15T06:35:33;7.73;;;0.50;;
58338;SDS011;48278;52.704;6.536;2022-07-15T06:37:59;6.60;;;0.50;;
58338;SDS011;48278;52.704;6.536;2022-07-15T06:40:25;3.22;;;0.38;;
58338;SDS011;48278;52.704;6.536;2022-07-15T06:42:51;2.85;;;0.30;;
58338;SDS011;48278;52.704;6.536;2022-07-15T06:45:17;3.45;;;0.40;;
58338;SDS011;48278;52.704;6.536;2022-07-15T06:47:45;3.35;;;0.30;;
58338;SDS011;48278;52.704;6.536;2022-07-15T06:50:11;4.82;;;0.32;;
58338;SDS011;48278;52.704;6.536;2022-07-15T06:52:36;4.57;;;0.30;;
58338;SDS011;48278;52.704;6.536;2022-07-15T06:55:02;2.80;;;0.37;;
58338;SDS011;48278;52.704;6.536;2022-07-15T06:57:32;11.10;;;0.30;;
58338;SDS011;48278;52.704;6.536;2022-07-15T06:59:58;3.90;;;0.20;;
58338;SDS011;48278;52.704;6.536;2022-07-15T07:02:28;4.95;;;0.20;;
58338;SDS011;48278;52.704;6.536;2022-07-15T07:04:55;1.88;;;0.20;;
58338;SDS011;48278;52.704;6.536;2022-07-15T07:07:21;3.63;;;0.30;;
58338;SDS011;48278;52.704;6.536;2022-07-15T07:09:47;5.60;;;0.30;;
58338;SDS011;48278;52.704;6.536;2022-07-15T07:12:13;4.25;;;0.20;;
58338;SDS011;48278;52.704;6.536;2022-07-15T07:14:38;1.67;;;0.20;;
58338;SDS011;48278;52.704;6.536;2022-07-15T07:17:04;5.13;;;0.20;;
58338;SDS011;48278;52.704;6.536;2022-07-15T07:19:30;2.30;;;0.20;;
58338;SDS011;48278;52.704;6.536;2022-07-15T07:21:56;1.55;;;0.20;;
58338;SDS011;48278;52.704;6.536;2022-07-15T07:24:21;6.43;;;0.30;;
58338;SDS011;48278;52.704;6.536;2022-07-15T07:26:47;3.50;;;0.20;;
58338;SDS011;48278;52.704;6.536;2022-07-15T07:29:13;3.70;;;0.20;;
58338;SDS011;48278;52.704;6.536;2022-07-15T07:31:41;7.95;;;0.40;;
58338;SDS011;48278;52.704;6.536;2022-07-15T07:34:07;2.67;;;0.20;;
58338;SDS011;48278;52.704;6.536;2022-07-15T07:36:33;5.30;;;0.30;;
58338;SDS011;48278;52.704;6.536;2022-07-15T07:38:58;2.13;;;0.22;;
58338;SDS011;48278;52.704;6.536;2022-07-15T07:41:24;2.00;;;0.20;;
58338;SDS011;48278;52.704;6.536;2022-07-15T07:43:50;1.77;;;0.10;;
58338;SDS011;48278;52.704;6.536;2022-07-15T07:46:16;7.05;;;0.20;;
58338;SDS011;48278;52.704;6.536;2022-07-15T07:48:42;2.13;;;0.10;;
58338;SDS011;48278;52.704;6.536;2022-07-15T07:51:08;2.73;;;0.20;;
58338;SDS011;48278;52.704;6.536;2022-07-15T07:53:34;2.20;;;0.20;;
58338;SDS011;48278;52.704;6.536;2022-07-15T07:56:00;4.15;;;0.22;;
58338;SDS011;48278;52.704;6.536;2022-07-15T07:58:26;3.90;;;0.40;;
58338;SDS011;48278;52.704;6.536;2022-07-15T08:00:51;5.43;;;0.20;;
58338;SDS011;48278;52.704;6.536;2022-07-15T08:03:18;4.67;;;0.20;;
58338;SDS011;48278;52.704;6.536;2022-07-15T08:05:44;3.00;;;0.20;;
58338;SDS011;48278;52.704;6.536;2022-07-15T08:10:40;4.40;;;0.20;;
58338;SDS011;48278;52.704;6.536;2022-07-15T08:13:08;6.60;;;0.20;;
58338;SDS011;48278;52.704;6.536;2022-07-15T08:15:33;1.23;;;0.17;;
58338;SDS011;48278;52.704;6.536;2022-07-15T08:17:59;3.17;;;0.20;;
58338;SDS011;48278;52.704;6.536;2022-07-15T08:20:27;3.50;;;0.10;;
58338;SDS011;48278;52.704;6.536;2022-07-15T08:22:54;1.25;;;0.20;;
58338;SDS011;48278;52.704;6.536;2022-07-15T08:25:30;1.23;;;0.10;;
58338;SDS011;48278;52.704;6.536;2022-07-15T08:27:58;4.72;;;0.20;;
58338;SDS011;48278;52.704;6.536;2022-07-15T08:30:25;4.72;;;0.20;;
58338;SDS011;48278;52.704;6.536;2022-07-15T08:32:52;0.68;;;0.10;;
58338;SDS011;48278;52.704;6.536;2022-07-15T08:35:19;2.80;;;0.15;;
58338;SDS011;48278;52.704;6.536;2022-07-15T08:37:45;9.05;;;5.28;;
58338;SDS011;48278;52.704;6.536;2022-07-15T08:40:11;5.07;;;2.40;;
58338;SDS011;48278;52.704;6.536;2022-07-15T08:42:38;1.85;;;0.20;;
58338;SDS011;48278;52.704;6.536;2022-07-15T08:45:06;3.15;;;0.10;;
58338;SDS011;48278;52.704;6.536;2022-07-15T08:50:01;2.85;;;0.10;;
58338;SDS011;48278;52.704;6.536;2022-07-15T08:52:28;5.07;;;0.20;;
58338;SDS011;48278;52.704;6.536;2022-07-15T08:54:58;1.80;;;0.20;;
58338;SDS011;48278;52.704;6.536;2022-07-15T08:57:23;3.93;;;0.30;;
58338;SDS011;48278;52.704;6.536;2022-07-15T08:59:51;3.20;;;0.20;;
58338;SDS011;48278;52.704;6.536;2022-07-15T09:02:21;2.97;;;0.20;;
58338;SDS011;48278;52.704;6.536;2022-07-15T09:07:49;2.28;;;0.20;;
58338;SDS011;48278;52.704;6.536;2022-07-15T09:10:23;2.03;;;0.28;;
58338;SDS011;48278;52.704;6.536;2022-07-15T09:12:51;5.55;;;0.20;;
58338;SDS011;48278;52.704;6.536;2022-07-15T09:15:31;1.95;;;0.10;;
58338;SDS011;48278;52.704;6.536;2022-07-15T09:18:03;3.13;;;0.20;;
58338;SDS011;48278;52.704;6.536;2022-07-15T09:20:40;2.05;;;0.10;;
58338;SDS011;48278;52.704;6.536;2022-07-15T09:23:10;1.67;;;0.13;;
58338;SDS011;48278;52.704;6.536;2022-07-15T09:25:41;0.88;;;0.20;;
58338;SDS011;48278;52.704;6.536;2022-07-15T09:28:07;1.20;;;0.10;;
58338;SDS011;48278;52.704;6.536;2022-07-15T09:30:38;1.85;;;0.10;;
58338;SDS011;48278;52.704;6.536;2022-07-15T09:33:31;2.65;;;0.50;;
58338;SDS011;48278;52.704;6.536;2022-07-15T09:36:11;3.25;;;0.20;;
58338;SDS011;48278;52.704;6.536;2022-07-15T09:38:52;0.70;;;0.03;;
58338;SDS011;48278;52.704;6.536;2022-07-15T09:41:26;0.98;;;0.20;;
58338;SDS011;48278;52.704;6.536;2022-07-15T09:43:59;0.68;;;0.20;;
58338;SDS011;48278;52.704;6.536;2022-07-15T09:49:10;2.95;;;0.20;;
58338;SDS011;48278;52.704;6.536;2022-07-15T09:54:20;2.72;;;0.17;;
58338;SDS011;48278;52.704;6.536;2022-07-15T09:56:50;1.02;;;0.10;;
58338;SDS011;48278;52.704;6.536;2022-07-15T09:59:18;2.58;;;0.10;;
58338;SDS011;48278;52.704;6.536;2022-07-15T10:04:13;3.50;;;0.20;;
58338;SDS011;48278;52.704;6.536;2022-07-15T10:06:40;1.13;;;0.10;;
58338;SDS011;48278;52.704;6.536;2022-07-15T10:09:08;2.30;;;0.25;;
58338;SDS011;48278;52.704;6.536;2022-07-15T10:11:37;2.83;;;0.17;;
58338;SDS011;48278;52.704;6.536;2022-07-15T10:14:20;1.13;;;0.20;;
58338;SDS011;48278;52.704;6.536;2022-07-15T10:26:11;6.13;;;0.20;;
58338;SDS011;48278;52.704;6.536;2022-07-15T10:29:02;3.67;;;0.40;;
58338;SDS011;48278;52.704;6.536;2022-07-15T10:31:32;1.67;;;0.30;;
58338;SDS011;48278;52.704;6.536;2022-07-15T10:34:20;1.63;;;0.28;;
58338;SDS011;48278;52.704;6.536;2022-07-15T10:39:11;3.80;;;0.20;;
58338;SDS011;48278;52.704;6.536;2022-07-15T10:44:15;2.03;;;0.30;;
58338;SDS011;48278;52.704;6.536;2022-07-15T10:46:41;2.47;;;0.30;;
58338;SDS011;48278;52.704;6.536;2022-07-15T10:54:02;3.00;;;0.30;;
58338;SDS011;48278;52.704;6.536;2022-07-15T10:56:30;5.82;;;0.30;;
58338;SDS011;48278;52.704;6.536;2022-07-15T11:01:43;2.47;;;0.20;;
58338;SDS011;48278;52.704;6.536;2022-07-15T11:15:03;4.53;;;0.30;;
58338;SDS011;48278;52.704;6.536;2022-07-15T11:20:01;2.63;;;0.20;;
58338;SDS011;48278;52.704;6.536;2022-07-15T11:22:38;3.90;;;0.40;;
58338;SDS011;48278;52.704;6.536;2022-07-15T11:25:18;1.40;;;0.20;;
58338;SDS011;48278;52.704;6.536;2022-07-15T11:30:37;2.28;;;0.20;;
58338;SDS011;48278;52.704;6.536;2022-07-15T11:33:06;4.60;;;0.30;;
58338;SDS011;48278;52.704;6.536;2022-07-15T11:35:51;2.45;;;0.10;;
58338;SDS011;48278;52.704;6.536;2022-07-15T11:38:31;1.80;;;0.20;;
58338;SDS011;48278;52.704;6.536;2022-07-15T11:41:03;3.55;;;0.30;;
58338;SDS011;48278;52.704;6.536;2022-07-15T11:44:01;3.28;;;0.40;;
58338;SDS011;48278;52.704;6.536;2022-07-15T11:46:47;2.30;;;0.20;;
58338;SDS011;48278;52.704;6.536;2022-07-15T11:49:33;2.05;;;0.20;;
58338;SDS011;48278;52.704;6.536;2022-07-15T11:52:21;1.92;;;0.20;;
58338;SDS011;48278;52.704;6.536;2022-07-15T11:54:48;1.50;;;0.20;;
58338;SDS011;48278;52.704;6.536;2022-07-15T11:57:15;2.30;;;0.20;;
58338;SDS011;48278;52.704;6.536;2022-07-15T11:59:50;4.07;;;0.17;;
58338;SDS011;48278;52.704;6.536;2022-07-15T12:02:22;1.05;;;0.20;;
58338;SDS011;48278;52.704;6.536;2022-07-15T12:04:52;1.63;;;0.20;;
58338;SDS011;48278;52.704;6.536;2022-07-15T12:07:38;3.28;;;0.20;;
58338;SDS011;48278;52.704;6.536;2022-07-15T12:10:04;1.38;;;0.20;;
58338;SDS011;48278;52.704;6.536;2022-07-15T12:12:32;1.67;;;0.30;;
58338;SDS011;48278;52.704;6.536;2022-07-15T12:14:57;2.57;;;0.20;;
58338;SDS011;48278;52.704;6.536;2022-07-15T12:17:23;4.60;;;0.30;;
58338;SDS011;48278;52.704;6.536;2022-07-15T12:19:50;2.25;;;0.20;;
58338;SDS011;48278;52.704;6.536;2022-07-15T12:22:18;4.00;;;0.20;;
58338;SDS011;48278;52.704;6.536;2022-07-15T12:24:46;4.15;;;0.30;;
58338;SDS011;48278;52.704;6.536;2022-07-15T12:27:16;6.32;;;0.40;;
58338;SDS011;48278;52.704;6.536;2022-07-15T12:29:42;3.78;;;0.30;;
58338;SDS011;48278;52.704;6.536;2022-07-15T12:32:10;5.07;;;0.30;;
58338;SDS011;48278;52.704;6.536;2022-07-15T12:37:15;3.65;;;0.20;;
58338;SDS011;48278;52.704;6.536;2022-07-15T12:39:56;6.07;;;0.40;;
58338;SDS011;48278;52.704;6.536;2022-07-15T12:42:46;4.20;;;0.30;;
58338;SDS011;48278;52.704;6.536;2022-07-15T12:47:59;2.97;;;0.50;;
58338;SDS011;48278;52.704;6.536;2022-07-15T12:50:33;4.43;;;0.30;;
58338;SDS011;48278;52.704;6.536;2022-07-15T12:53:00;3.25;;;0.30;;
58338;SDS011;48278;52.704;6.536;2022-07-15T12:55:39;2.15;;;0.20;;
58338;SDS011;48278;52.704;6.536;2022-07-15T12:58:07;2.33;;;0.20;;
58338;SDS011;48278;52.704;6.536;2022-07-15T13:00:34;2.50;;;0.20;;
58338;SDS011;48278;52.704;6.536;2022-07-15T13:03:10;1.77;;;0.20;;
58338;SDS011;48278;52.704;6.536;2022-07-15T13:05:46;3.53;;;0.20;;
58338;SDS011;48278;52.704;6.536;2022-07-15T13:08:14;3.63;;;0.30;;
58338;SDS011;48278;52.704;6.536;2022-07-15T13:10:44;2.97;;;0.20;;
58338;SDS011;48278;52.704;6.536;2022-07-15T13:13:12;2.58;;;0.30;;
58338;SDS011;48278;52.704;6.536;2022-07-15T13:15:40;4.38;;;0.20;;
58338;SDS011;48278;52.704;6.536;2022-07-15T13:18:07;4.60;;;0.30;;
58338;SDS011;48278;52.704;6.536;2022-07-15T13:20:33;7.68;;;0.20;;
58338;SDS011;48278;52.704;6.536;2022-07-15T13:22:59;2.05;;;0.30;;
58338;SDS011;48278;52.704;6.536;2022-07-15T13:25:25;2.33;;;0.25;;
58338;SDS011;48278;52.704;6.536;2022-07-15T13:27:53;3.72;;;0.25;;
58338;SDS011;48278;52.704;6.536;2022-07-15T13:30:19;0.75;;;0.30;;
58338;SDS011;48278;52.704;6.536;2022-07-15T13:32:45;2.67;;;0.27;;
58338;SDS011;48278;52.704;6.536;2022-07-15T13:37:38;1.67;;;0.20;;
58338;SDS011;48278;52.704;6.536;2022-07-15T13:40:05;4.05;;;0.20;;
58338;SDS011;48278;52.704;6.536;2022-07-15T13:42:32;3.10;;;0.30;;
58338;SDS011;48278;52.704;6.536;2022-07-15T13:44:58;6.40;;;0.30;;
58338;SDS011;48278;52.704;6.536;2022-07-15T13:47:24;1.35;;;0.20;;
58338;SDS011;48278;52.704;6.536;2022-07-15T13:49:51;3.22;;;0.40;;
58338;SDS011;48278;52.704;6.536;2022-07-15T13:52:45;2.95;;;0.28;;
58338;SDS011;48278;52.704;6.536;2022-07-15T13:57:40;4.68;;;0.30;;
58338;SDS011;48278;52.704;6.536;2022-07-15T14:00:07;1.42;;;0.20;;
58338;SDS011;48278;52.704;6.536;2022-07-15T14:02:37;4.22;;;0.30;;
58338;SDS011;48278;52.704;6.536;2022-07-15T14:05:03;1.83;;;0.20;;
58338;SDS011;48278;52.704;6.536;2022-07-15T14:07:29;3.85;;;0.30;;
58338;SDS011;48278;52.704;6.536;2022-07-15T14:09:55;1.80;;;0.20;;
58338;SDS011;48278;52.704;6.536;2022-07-15T14:12:21;1.93;;;0.30;;
58338;SDS011;48278;52.704;6.536;2022-07-15T14:14:47;2.20;;;0.20;;
58338;SDS011;48278;52.704;6.536;2022-07-15T14:17:12;2.77;;;0.20;;
58338;SDS011;48278;52.704;6.536;2022-07-15T14:19:38;1.27;;;0.23;;
58338;SDS011;48278;52.704;6.536;2022-07-15T14:22:04;2.50;;;0.20;;
58338;SDS011;48278;52.704;6.536;2022-07-15T14:24:29;3.47;;;0.27;;
58338;SDS011;48278;52.704;6.536;2022-07-15T14:26:55;1.40;;;0.20;;
58338;SDS011;48278;52.704;6.536;2022-07-15T14:29:21;1.27;;;0.20;;
58338;SDS011;48278;52.704;6.536;2022-07-15T14:31:47;1.97;;;0.20;;
58338;SDS011;48278;52.704;6.536;2022-07-15T14:34:13;2.60;;;0.30;;
58338;SDS011;48278;52.704;6.536;2022-07-15T14:36:38;1.30;;;0.20;;
58338;SDS011;48278;52.704;6.536;2022-07-15T14:39:06;1.85;;;0.20;;
58338;SDS011;48278;52.704;6.536;2022-07-15T14:41:32;3.22;;;0.35;;
58338;SDS011;48278;52.704;6.536;2022-07-15T14:43:58;4.10;;;0.45;;
58338;SDS011;48278;52.704;6.536;2022-07-15T14:46:24;1.73;;;0.30;;
58338;SDS011;48278;52.704;6.536;2022-07-15T14:48:50;2.97;;;0.43;;
58338;SDS011;48278;52.704;6.536;2022-07-15T14:51:16;1.10;;;0.20;;
58338;SDS011;48278;52.704;6.536;2022-07-15T14:53:42;1.58;;;0.30;;
58338;SDS011;48278;52.704;6.536;2022-07-15T14:56:08;3.87;;;0.30;;
58338;SDS011;48278;52.704;6.536;2022-07-15T14:58:34;2.37;;;0.30;;
58338;SDS011;48278;52.704;6.536;2022-07-15T15:01:00;2.77;;;0.33;;
58338;SDS011;48278;52.704;6.536;2022-07-15T15:03:25;2.60;;;0.30;;
58338;SDS011;48278;52.704;6.536;2022-07-15T15:05:52;3.35;;;0.65;;
58338;SDS011;48278;52.704;6.536;2022-07-15T15:08:18;4.20;;;0.60;;
58338;SDS011;48278;52.704;6.536;2022-07-15T15:10:43;4.80;;;0.57;;
58338;SDS011;48278;52.704;6.536;2022-07-15T15:13:09;2.57;;;0.40;;
58338;SDS011;48278;52.704;6.536;2022-07-15T15:15:35;3.93;;;0.60;;
58338;SDS011;48278;52.704;6.536;2022-07-15T15:18:01;2.30;;;0.40;;
58338;SDS011;48278;52.704;6.536;2022-07-15T15:20:27;3.70;;;0.65;;
58338;SDS011;48278;52.704;6.536;2022-07-15T15:22:52;4.30;;;0.37;;
58338;SDS011;48278;52.704;6.536;2022-07-15T15:25:18;3.43;;;0.50;;
58338;SDS011;48278;52.704;6.536;2022-07-15T15:28:04;6.50;;;0.65;;
58338;SDS011;48278;52.704;6.536;2022-07-15T15:30:30;1.98;;;0.60;;
58338;SDS011;48278;52.704;6.536;2022-07-15T15:32:58;2.83;;;0.50;;
58338;SDS011;48278;52.704;6.536;2022-07-15T15:35:24;2.80;;;0.60;;
58338;SDS011;48278;52.704;6.536;2022-07-15T15:37:50;3.15;;;0.50;;
58338;SDS011;48278;52.704;6.536;2022-07-15T15:40:16;6.55;;;0.60;;
58338;SDS011;48278;52.704;6.536;2022-07-15T15:42:41;9.35;;;0.50;;
58338;SDS011;48278;52.704;6.536;2022-07-15T15:45:08;1.48;;;0.50;;
58338;SDS011;48278;52.704;6.536;2022-07-15T15:47:34;3.33;;;0.60;;
58338;SDS011;48278;52.704;6.536;2022-07-15T15:50:00;4.63;;;0.50;;
58338;SDS011;48278;52.704;6.536;2022-07-15T15:52:26;3.20;;;0.50;;
58338;SDS011;48278;52.704;6.536;2022-07-15T15:54:52;3.10;;;0.57;;